ENHV

Valan Airport

Honningsvåg, Norway
METAR ENHV 180950Z 28011KT 9999 FEW020 SCT030 13/09 Q1001
Observed Flight Rules
Aug-18 @ 09:50 UTC (5 hours ago) Visual Flight Rules
Wind Visibility Clouds
280° at 11 knots 10,000+ meters
  • Few at 2,000' AGL
  • Scattered at 3,000' AGL
Temperatures Readings
Current 13°C / 55°F
Dewpoint 9°C / 48°F
Humidity 77%
Altimeter 29.56" Hg
Pressure 1001 hPa
Elevation 14
METAR ENHV 180950Z 28011KT 9999 FEW020 SCT030 13/09 Q1001
Observed Flight Rules
Aug-18 @ 09:50 UTC
(5 hours ago)
VFR
Wind Visibility
280° at 11 knots 10,000+ meters
Clouds
  • Few at 2,000' AGL
  • Scattered at 3,000' AGL
Temperature Dewpoint
13°C / 55°F 9°C / 48°F
Humidity Altimeter Pressure
77% 29.56" Hg 1001 hPa